sensor_id;sensor_type;location;lat;lon;timestamp;P1;durP1;ratioP1;P2;durP2;ratioP2
14760;SDS011;7472;45.396;5.272;2023-08-20T00:02:02;10.27;;;3.10;;
14760;SDS011;7472;45.396;5.272;2023-08-20T00:04:32;10.45;;;3.72;;
14760;SDS011;7472;45.396;5.272;2023-08-20T00:07:02;8.20;;;3.45;;
14760;SDS011;7472;45.396;5.272;2023-08-20T00:09:29;12.80;;;4.25;;
14760;SDS011;7472;45.396;5.272;2023-08-20T00:11:58;9.10;;;3.83;;
14760;SDS011;7472;45.396;5.272;2023-08-20T00:17:09;7.47;;;3.42;;
14760;SDS011;7472;45.396;5.272;2023-08-20T00:19:38;10.48;;;3.65;;
14760;SDS011;7472;45.396;5.272;2023-08-20T00:22:06;8.43;;;3.53;;
14760;SDS011;7472;45.396;5.272;2023-08-20T00:24:33;9.05;;;3.58;;
14760;SDS011;7472;45.396;5.272;2023-08-20T00:27:01;6.90;;;3.50;;
14760;SDS011;7472;45.396;5.272;2023-08-20T00:29:28;11.75;;;3.70;;
14760;SDS011;7472;45.396;5.272;2023-08-20T00:31:56;7.80;;;3.97;;
14760;SDS011;7472;45.396;5.272;2023-08-20T00:34:23;9.75;;;4.15;;
14760;SDS011;7472;45.396;5.272;2023-08-20T00:36:52;8.80;;;3.90;;
14760;SDS011;7472;45.396;5.272;2023-08-20T00:39:19;7.18;;;3.50;;
14760;SDS011;7472;45.396;5.272;2023-08-20T00:41:46;3.85;;;2.92;;
14760;SDS011;7472;45.396;5.272;2023-08-20T00:44:14;6.57;;;3.65;;
14760;SDS011;7472;45.396;5.272;2023-08-20T00:46:41;12.40;;;4.18;;
14760;SDS011;7472;45.396;5.272;2023-08-20T00:49:09;9.45;;;3.50;;
14760;SDS011;7472;45.396;5.272;2023-08-20T00:51:36;6.43;;;3.17;;
14760;SDS011;7472;45.396;5.272;2023-08-20T00:54:05;8.15;;;3.72;;
14760;SDS011;7472;45.396;5.272;2023-08-20T00:56:33;8.23;;;3.70;;
14760;SDS011;7472;45.396;5.272;2023-08-20T00:59:01;10.52;;;3.95;;
14760;SDS011;7472;45.396;5.272;2023-08-20T01:01:28;12.00;;;4.03;;
14760;SDS011;7472;45.396;5.272;2023-08-20T01:03:56;6.28;;;4.03;;
14760;SDS011;7472;45.396;5.272;2023-08-20T01:06:26;9.85;;;4.13;;
14760;SDS011;7472;45.396;5.272;2023-08-20T01:09:01;7.60;;;4.20;;
14760;SDS011;7472;45.396;5.272;2023-08-20T01:11:33;7.00;;;4.30;;
14760;SDS011;7472;45.396;5.272;2023-08-20T01:14:00;5.85;;;3.80;;
14760;SDS011;7472;45.396;5.272;2023-08-20T01:16:28;7.47;;;4.03;;
14760;SDS011;7472;45.396;5.272;2023-08-20T01:18:55;7.50;;;4.03;;
14760;SDS011;7472;45.396;5.272;2023-08-20T01:21:24;9.45;;;4.38;;
14760;SDS011;7472;45.396;5.272;2023-08-20T01:23:57;9.48;;;4.00;;
14760;SDS011;7472;45.396;5.272;2023-08-20T01:26:39;8.93;;;4.10;;
14760;SDS011;7472;45.396;5.272;2023-08-20T01:29:10;4.63;;;3.92;;
14760;SDS011;7472;45.396;5.272;2023-08-20T01:31:38;11.45;;;4.63;;
14760;SDS011;7472;45.396;5.272;2023-08-20T01:34:07;8.52;;;4.45;;
14760;SDS011;7472;45.396;5.272;2023-08-20T01:36:34;5.85;;;4.03;;
14760;SDS011;7472;45.396;5.272;2023-08-20T01:39:02;7.47;;;3.83;;
14760;SDS011;7472;45.396;5.272;2023-08-20T01:41:30;9.95;;;4.97;;
14760;SDS011;7472;45.396;5.272;2023-08-20T01:43:57;7.93;;;4.18;;
14760;SDS011;7472;45.396;5.272;2023-08-20T01:46:26;7.15;;;4.03;;
14760;SDS011;7472;45.396;5.272;2023-08-20T01:48:53;8.25;;;4.20;;
14760;SDS011;7472;45.396;5.272;2023-08-20T01:51:21;7.20;;;4.18;;
14760;SDS011;7472;45.396;5.272;2023-08-20T01:53:48;6.90;;;4.10;;
14760;SDS011;7472;45.396;5.272;2023-08-20T01:56:16;7.53;;;4.25;;
14760;SDS011;7472;45.396;5.272;2023-08-20T01:58:43;5.60;;;4.20;;
14760;SDS011;7472;45.396;5.272;2023-08-20T02:01:11;4.68;;;4.18;;
14760;SDS011;7472;45.396;5.272;2023-08-20T02:03:39;12.32;;;4.20;;
14760;SDS011;7472;45.396;5.272;2023-08-20T02:06:07;7.80;;;4.80;;
14760;SDS011;7472;45.396;5.272;2023-08-20T02:08:34;6.55;;;5.00;;
14760;SDS011;7472;45.396;5.272;2023-08-20T02:11:02;12.60;;;5.05;;
14760;SDS011;7472;45.396;5.272;2023-08-20T02:13:30;7.53;;;5.22;;
14760;SDS011;7472;45.396;5.272;2023-08-20T02:15:58;9.07;;;5.07;;
14760;SDS011;7472;45.396;5.272;2023-08-20T02:18:25;10.73;;;5.78;;
14760;SDS011;7472;45.396;5.272;2023-08-20T02:20:54;7.00;;;5.38;;
14760;SDS011;7472;45.396;5.272;2023-08-20T02:23:22;8.75;;;5.75;;
14760;SDS011;7472;45.396;5.272;2023-08-20T02:25:49;6.80;;;6.05;;
14760;SDS011;7472;45.396;5.272;2023-08-20T02:28:17;6.90;;;5.60;;
14760;SDS011;7472;45.396;5.272;2023-08-20T02:30:44;7.63;;;5.55;;
14760;SDS011;7472;45.396;5.272;2023-08-20T02:33:12;9.77;;;4.82;;
14760;SDS011;7472;45.396;5.272;2023-08-20T02:35:40;7.20;;;5.28;;
14760;SDS011;7472;45.396;5.272;2023-08-20T02:38:08;6.85;;;4.95;;
14760;SDS011;7472;45.396;5.272;2023-08-20T02:40:39;6.25;;;5.03;;
14760;SDS011;7472;45.396;5.272;2023-08-20T02:43:07;11.23;;;5.07;;
14760;SDS011;7472;45.396;5.272;2023-08-20T02:45:39;10.40;;;5.72;;
14760;SDS011;7472;45.396;5.272;2023-08-20T02:48:07;10.00;;;5.70;;
14760;SDS011;7472;45.396;5.272;2023-08-20T02:50:34;7.28;;;4.80;;
14760;SDS011;7472;45.396;5.272;2023-08-20T02:53:02;8.30;;;5.35;;
14760;SDS011;7472;45.396;5.272;2023-08-20T02:55:31;10.38;;;5.07;;
14760;SDS011;7472;45.396;5.272;2023-08-20T02:57:58;8.02;;;4.57;;
14760;SDS011;7472;45.396;5.272;2023-08-20T03:00:26;8.30;;;4.75;;
14760;SDS011;7472;45.396;5.272;2023-08-20T03:02:54;11.18;;;4.75;;
14760;SDS011;7472;45.396;5.272;2023-08-20T03:05:22;8.75;;;4.97;;
14760;SDS011;7472;45.396;5.272;2023-08-20T03:07:49;8.90;;;4.90;;
14760;SDS011;7472;45.396;5.272;2023-08-20T03:10:16;7.18;;;4.65;;
14760;SDS011;7472;45.396;5.272;2023-08-20T03:12:45;12.27;;;4.55;;
14760;SDS011;7472;45.396;5.272;2023-08-20T03:15:12;13.38;;;4.90;;
14760;SDS011;7472;45.396;5.272;2023-08-20T03:17:40;13.05;;;4.30;;
14760;SDS011;7472;45.396;5.272;2023-08-20T03:20:08;11.82;;;4.70;;
14760;SDS011;7472;45.396;5.272;2023-08-20T03:22:36;13.05;;;5.15;;
14760;SDS011;7472;45.396;5.272;2023-08-20T03:25:03;11.70;;;4.40;;
14760;SDS011;7472;45.396;5.272;2023-08-20T03:27:31;8.32;;;3.90;;
14760;SDS011;7472;45.396;5.272;2023-08-20T03:30:00;13.07;;;4.40;;
14760;SDS011;7472;45.396;5.272;2023-08-20T03:32:27;10.45;;;4.00;;
14760;SDS011;7472;45.396;5.272;2023-08-20T03:34:54;11.10;;;4.63;;
14760;SDS011;7472;45.396;5.272;2023-08-20T03:37:24;8.82;;;4.05;;
14760;SDS011;7472;45.396;5.272;2023-08-20T03:39:51;8.95;;;4.30;;
14760;SDS011;7472;45.396;5.272;2023-08-20T03:42:19;10.35;;;4.88;;
14760;SDS011;7472;45.396;5.272;2023-08-20T03:44:46;10.32;;;4.60;;
14760;SDS011;7472;45.396;5.272;2023-08-20T03:47:15;12.15;;;5.10;;
14760;SDS011;7472;45.396;5.272;2023-08-20T03:49:45;9.65;;;5.05;;
14760;SDS011;7472;45.396;5.272;2023-08-20T03:52:13;12.65;;;5.63;;
14760;SDS011;7472;45.396;5.272;2023-08-20T03:54:40;7.60;;;4.65;;
14760;SDS011;7472;45.396;5.272;2023-08-20T03:57:08;6.57;;;5.20;;
14760;SDS011;7472;45.396;5.272;2023-08-20T03:59:35;11.45;;;5.10;;
14760;SDS011;7472;45.396;5.272;2023-08-20T04:02:02;9.85;;;4.97;;
14760;SDS011;7472;45.396;5.272;2023-08-20T04:04:31;9.63;;;5.15;;
14760;SDS011;7472;45.396;5.272;2023-08-20T04:06:59;5.85;;;5.20;;
14760;SDS011;7472;45.396;5.272;2023-08-20T04:09:26;7.95;;;4.85;;
14760;SDS011;7472;45.396;5.272;2023-08-20T04:11:53;13.02;;;5.18;;
14760;SDS011;7472;45.396;5.272;2023-08-20T04:14:21;10.25;;;5.43;;
14760;SDS011;7472;45.396;5.272;2023-08-20T04:16:48;8.15;;;4.90;;
14760;SDS011;7472;45.396;5.272;2023-08-20T04:19:15;7.57;;;5.45;;
14760;SDS011;7472;45.396;5.272;2023-08-20T04:21:44;8.15;;;5.15;;
14760;SDS011;7472;45.396;5.272;2023-08-20T04:24:12;11.25;;;5.47;;
14760;SDS011;7472;45.396;5.272;2023-08-20T04:26:39;8.63;;;5.93;;
14760;SDS011;7472;45.396;5.272;2023-08-20T04:29:07;10.43;;;6.15;;
14760;SDS011;7472;45.396;5.272;2023-08-20T04:31:34;7.63;;;5.60;;
14760;SDS011;7472;45.396;5.272;2023-08-20T04:34:02;8.80;;;5.75;;
14760;SDS011;7472;45.396;5.272;2023-08-20T04:36:29;7.20;;;5.28;;
14760;SDS011;7472;45.396;5.272;2023-08-20T04:38:58;9.25;;;5.40;;
14760;SDS011;7472;45.396;5.272;2023-08-20T04:41:25;11.30;;;5.82;;
14760;SDS011;7472;45.396;5.272;2023-08-20T04:43:53;9.18;;;5.82;;
14760;SDS011;7472;45.396;5.272;2023-08-20T04:46:20;7.32;;;5.50;;
14760;SDS011;7472;45.396;5.272;2023-08-20T04:48:47;7.88;;;5.03;;
14760;SDS011;7472;45.396;5.272;2023-08-20T04:51:15;7.75;;;5.53;;
14760;SDS011;7472;45.396;5.272;2023-08-20T04:53:42;9.40;;;5.47;;
14760;SDS011;7472;45.396;5.272;2023-08-20T04:56:11;10.32;;;5.55;;
14760;SDS011;7472;45.396;5.272;2023-08-20T04:58:38;10.93;;;5.40;;
14760;SDS011;7472;45.396;5.272;2023-08-20T05:01:06;9.75;;;5.40;;
14760;SDS011;7472;45.396;5.272;2023-08-20T05:03:34;12.13;;;4.97;;
14760;SDS011;7472;45.396;5.272;2023-08-20T05:06:01;11.35;;;5.93;;
14760;SDS011;7472;45.396;5.272;2023-08-20T05:08:29;7.88;;;5.97;;
14760;SDS011;7472;45.396;5.272;2023-08-20T05:10:57;6.57;;;5.75;;
14760;SDS011;7472;45.396;5.272;2023-08-20T05:13:25;7.32;;;5.43;;
14760;SDS011;7472;45.396;5.272;2023-08-20T05:15:53;8.70;;;5.47;;
14760;SDS011;7472;45.396;5.272;2023-08-20T05:18:20;6.93;;;5.65;;
14760;SDS011;7472;45.396;5.272;2023-08-20T05:20:47;11.45;;;5.88;;
14760;SDS011;7472;45.396;5.272;2023-08-20T05:23:15;12.10;;;5.55;;
14760;SDS011;7472;45.396;5.272;2023-08-20T05:25:42;8.25;;;5.47;;
14760;SDS011;7472;45.396;5.272;2023-08-20T05:28:10;8.82;;;5.50;;
14760;SDS011;7472;45.396;5.272;2023-08-20T05:30:38;9.77;;;5.43;;
14760;SDS011;7472;45.396;5.272;2023-08-20T05:33:06;8.68;;;4.78;;
14760;SDS011;7472;45.396;5.272;2023-08-20T05:35:33;12.90;;;6.05;;
14760;SDS011;7472;45.396;5.272;2023-08-20T05:38:01;7.28;;;5.55;;
14760;SDS011;7472;45.396;5.272;2023-08-20T05:40:28;9.57;;;5.78;;
14760;SDS011;7472;45.396;5.272;2023-08-20T05:42:55;7.47;;;5.47;;
14760;SDS011;7472;45.396;5.272;2023-08-20T05:45:23;10.88;;;6.00;;
14760;SDS011;7472;45.396;5.272;2023-08-20T05:47:52;10.70;;;5.68;;
14760;SDS011;7472;45.396;5.272;2023-08-20T05:50:19;8.40;;;5.43;;
14760;SDS011;7472;45.396;5.272;2023-08-20T05:52:46;10.18;;;5.53;;
14760;SDS011;7472;45.396;5.272;2023-08-20T05:55:14;10.98;;;5.13;;
14760;SDS011;7472;45.396;5.272;2023-08-20T05:57:41;9.85;;;5.03;;
14760;SDS011;7472;45.396;5.272;2023-08-20T06:00:09;12.07;;;5.00;;
14760;SDS011;7472;45.396;5.272;2023-08-20T06:02:37;11.48;;;5.40;;
14760;SDS011;7472;45.396;5.272;2023-08-20T06:05:06;10.63;;;5.72;;
14760;SDS011;7472;45.396;5.272;2023-08-20T06:07:33;12.15;;;5.80;;
14760;SDS011;7472;45.396;5.272;2023-08-20T06:10:01;8.40;;;5.78;;
14760;SDS011;7472;45.396;5.272;2023-08-20T06:12:28;11.93;;;5.07;;
14760;SDS011;7472;45.396;5.272;2023-08-20T06:14:56;9.68;;;5.32;;
14760;SDS011;7472;45.396;5.272;2023-08-20T06:17:23;7.57;;;4.57;;
14760;SDS011;7472;45.396;5.272;2023-08-20T06:19:50;11.43;;;5.32;;
14760;SDS011;7472;45.396;5.272;2023-08-20T06:22:19;9.05;;;4.55;;
14760;SDS011;7472;45.396;5.272;2023-08-20T06:24:47;12.70;;;5.07;;
14760;SDS011;7472;45.396;5.272;2023-08-20T06:27:14;9.05;;;5.15;;
14760;SDS011;7472;45.396;5.272;2023-08-20T06:29:41;10.98;;;5.25;;
14760;SDS011;7472;45.396;5.272;2023-08-20T06:32:09;14.63;;;5.53;;
14760;SDS011;7472;45.396;5.272;2023-08-20T06:34:36;8.77;;;4.97;;
14760;SDS011;7472;45.396;5.272;2023-08-20T06:37:04;11.85;;;5.45;;
14760;SDS011;7472;45.396;5.272;2023-08-20T06:39:33;12.90;;;4.63;;
14760;SDS011;7472;45.396;5.272;2023-08-20T06:42:01;9.88;;;5.40;;
14760;SDS011;7472;45.396;5.272;2023-08-20T06:44:28;7.55;;;4.97;;
14760;SDS011;7472;45.396;5.272;2023-08-20T06:46:56;10.63;;;5.57;;
14760;SDS011;7472;45.396;5.272;2023-08-20T06:49:23;13.93;;;5.20;;
14760;SDS011;7472;45.396;5.272;2023-08-20T06:51:50;6.88;;;4.70;;
14760;SDS011;7472;45.396;5.272;2023-08-20T06:54:18;11.75;;;5.20;;
14760;SDS011;7472;45.396;5.272;2023-08-20T06:56:46;10.85;;;5.10;;
14760;SDS011;7472;45.396;5.272;2023-08-20T06:59:14;10.98;;;5.32;;
14760;SDS011;7472;45.396;5.272;2023-08-20T07:01:41;9.80;;;4.88;;
14760;SDS011;7472;45.396;5.272;2023-08-20T07:04:09;11.35;;;5.65;;
14760;SDS011;7472;45.396;5.272;2023-08-20T07:06:38;14.43;;;5.47;;
14760;SDS011;7472;45.396;5.272;2023-08-20T07:09:06;11.88;;;5.03;;
14760;SDS011;7472;45.396;5.272;2023-08-20T07:11:34;10.18;;;4.82;;
14760;SDS011;7472;45.396;5.272;2023-08-20T07:14:03;17.75;;;5.13;;
14760;SDS011;7472;45.396;5.272;2023-08-20T07:16:30;14.35;;;5.13;;
14760;SDS011;7472;45.396;5.272;2023-08-20T07:18:58;9.95;;;4.95;;
14760;SDS011;7472;45.396;5.272;2023-08-20T07:21:25;11.68;;;4.68;;
14760;SDS011;7472;45.396;5.272;2023-08-20T07:23:53;7.28;;;4.88;;
14760;SDS011;7472;45.396;5.272;2023-08-20T07:26:20;15.02;;;4.72;;
14760;SDS011;7472;45.396;5.272;2023-08-20T07:28:48;10.45;;;4.38;;
14760;SDS011;7472;45.396;5.272;2023-08-20T07:31:26;7.65;;;4.68;;
14760;SDS011;7472;45.396;5.272;2023-08-20T07:33:54;14.85;;;5.13;;
14760;SDS011;7472;45.396;5.272;2023-08-20T07:36:21;9.18;;;5.25;;
14760;SDS011;7472;45.396;5.272;2023-08-20T07:38:49;12.02;;;4.95;;
14760;SDS011;7472;45.396;5.272;2023-08-20T07:41:17;11.77;;;4.57;;
14760;SDS011;7472;45.396;5.272;2023-08-20T07:43:45;9.00;;;4.40;;
14760;SDS011;7472;45.396;5.272;2023-08-20T07:46:13;12.27;;;4.97;;
14760;SDS011;7472;45.396;5.272;2023-08-20T07:48:42;9.57;;;4.85;;
14760;SDS011;7472;45.396;5.272;2023-08-20T07:51:09;11.90;;;4.75;;
14760;SDS011;7472;45.396;5.272;2023-08-20T07:53:37;7.68;;;4.32;;
14760;SDS011;7472;45.396;5.272;2023-08-20T07:56:04;8.52;;;4.82;;
14760;SDS011;7472;45.396;5.272;2023-08-20T07:58:31;7.97;;;4.40;;
14760;SDS011;7472;45.396;5.272;2023-08-20T08:00:59;10.57;;;5.40;;
14760;SDS011;7472;45.396;5.272;2023-08-20T08:03:26;11.10;;;5.50;;
14760;SDS011;7472;45.396;5.272;2023-08-20T08:05:55;8.95;;;4.95;;
14760;SDS011;7472;45.396;5.272;2023-08-20T08:08:22;12.68;;;5.28;;
14760;SDS011;7472;45.396;5.272;2023-08-20T08:10:50;8.02;;;4.80;;
14760;SDS011;7472;45.396;5.272;2023-08-20T08:13:18;6.97;;;4.18;;
14760;SDS011;7472;45.396;5.272;2023-08-20T08:15:46;9.57;;;5.60;;
14760;SDS011;7472;45.396;5.272;2023-08-20T08:18:14;11.32;;;4.60;;
14760;SDS011;7472;45.396;5.272;2023-08-20T08:20:41;10.77;;;5.45;;
14760;SDS011;7472;45.396;5.272;2023-08-20T08:23:10;8.23;;;5.45;;
14760;SDS011;7472;45.396;5.272;2023-08-20T08:25:37;13.63;;;5.13;;
14760;SDS011;7472;45.396;5.272;2023-08-20T08:28:05;7.90;;;4.82;;
14760;SDS011;7472;45.396;5.272;2023-08-20T08:30:32;6.50;;;4.80;;
14760;SDS011;7472;45.396;5.272;2023-08-20T08:33:00;9.98;;;4.82;;
14760;SDS011;7472;45.396;5.272;2023-08-20T08:35:27;8.88;;;5.05;;
14760;SDS011;7472;45.396;5.272;2023-08-20T08:37:54;9.63;;;5.25;;
14760;SDS011;7472;45.396;5.272;2023-08-20T08:40:24;8.00;;;4.60;;
14760;SDS011;7472;45.396;5.272;2023-08-20T08:42:52;10.85;;;4.88;;
14760;SDS011;7472;45.396;5.272;2023-08-20T08:45:21;7.18;;;4.65;;
14760;SDS011;7472;45.396;5.272;2023-08-20T08:47:48;8.00;;;5.03;;
14760;SDS011;7472;45.396;5.272;2023-08-20T08:50:16;7.55;;;5.03;;
14760;SDS011;7472;45.396;5.272;2023-08-20T08:52:44;13.45;;;5.10;;
14760;SDS011;7472;45.396;5.272;2023-08-20T08:55:12;10.05;;;4.75;;
14760;SDS011;7472;45.396;5.272;2023-08-20T08:57:40;6.40;;;4.20;;
14760;SDS011;7472;45.396;5.272;2023-08-20T09:00:08;5.63;;;4.22;;
14760;SDS011;7472;45.396;5.272;2023-08-20T09:02:36;8.93;;;4.50;;
14760;SDS011;7472;45.396;5.272;2023-08-20T09:05:04;7.15;;;3.88;;
14760;SDS011;7472;45.396;5.272;2023-08-20T09:07:32;7.63;;;3.90;;
14760;SDS011;7472;45.396;5.272;2023-08-20T09:10:00;8.95;;;4.57;;
14760;SDS011;7472;45.396;5.272;2023-08-20T09:12:27;8.35;;;4.50;;
14760;SDS011;7472;45.396;5.272;2023-08-20T09:14:56;9.45;;;4.35;;
14760;SDS011;7472;45.396;5.272;2023-08-20T09:17:25;10.30;;;4.63;;
14760;SDS011;7472;45.396;5.272;2023-08-20T09:19:54;12.80;;;4.90;;
14760;SDS011;7472;45.396;5.272;2023-08-20T09:22:22;6.93;;;4.78;;
14760;SDS011;7472;45.396;5.272;2023-08-20T09:24:53;8.98;;;5.07;;
14760;SDS011;7472;45.396;5.272;2023-08-20T09:27:21;9.63;;;4.50;;
14760;SDS011;7472;45.396;5.272;2023-08-20T09:29:49;6.80;;;4.55;;
14760;SDS011;7472;45.396;5.272;2023-08-20T09:32:19;9.75;;;5.47;;
14760;SDS011;7472;45.396;5.272;2023-08-20T09:34:47;12.73;;;4.20;;
14760;SDS011;7472;45.396;5.272;2023-08-20T09:37:17;10.10;;;4.60;;
14760;SDS011;7472;45.396;5.272;2023-08-20T09:39:44;9.00;;;4.40;;
14760;SDS011;7472;45.396;5.272;2023-08-20T09:42:12;8.80;;;4.68;;
14760;SDS011;7472;45.396;5.272;2023-08-20T09:44:40;7.15;;;4.28;;
14760;SDS011;7472;45.396;5.272;2023-08-20T09:47:09;7.22;;;4.93;;
14760;SDS011;7472;45.396;5.272;2023-08-20T09:49:39;9.52;;;4.15;;
14760;SDS011;7472;45.396;5.272;2023-08-20T09:52:07;8.23;;;4.45;;
14760;SDS011;7472;45.396;5.272;2023-08-20T09:54:36;12.73;;;4.30;;
14760;SDS011;7472;45.396;5.272;2023-08-20T09:57:06;7.30;;;4.05;;
14760;SDS011;7472;45.396;5.272;2023-08-20T09:59:34;10.95;;;4.40;;
14760;SDS011;7472;45.396;5.272;2023-08-20T10:02:02;9.90;;;4.82;;
14760;SDS011;7472;45.396;5.272;2023-08-20T10:04:29;13.70;;;4.45;;
14760;SDS011;7472;45.396;5.272;2023-08-20T10:06:58;7.40;;;4.32;;
14760;SDS011;7472;45.396;5.272;2023-08-20T10:09:27;7.32;;;4.78;;
14760;SDS011;7472;45.396;5.272;2023-08-20T10:11:54;7.88;;;3.95;;
14760;SDS011;7472;45.396;5.272;2023-08-20T10:14:21;9.05;;;4.35;;
14760;SDS011;7472;45.396;5.272;2023-08-20T10:16:49;9.02;;;4.45;;
14760;SDS011;7472;45.396;5.272;2023-08-20T10:19:16;11.05;;;4.30;;
14760;SDS011;7472;45.396;5.272;2023-08-20T10:21:44;10.15;;;4.03;;
14760;SDS011;7472;45.396;5.272;2023-08-20T10:24:17;6.03;;;4.20;;
14760;SDS011;7472;45.396;5.272;2023-08-20T10:26:46;8.90;;;4.63;;
14760;SDS011;7472;45.396;5.272;2023-08-20T10:31:59;4.70;;;3.75;;
14760;SDS011;7472;45.396;5.272;2023-08-20T10:34:33;7.75;;;4.50;;
14760;SDS011;7472;45.396;5.272;2023-08-20T10:37:01;6.82;;;4.53;;
14760;SDS011;7472;45.396;5.272;2023-08-20T10:39:31;5.60;;;4.32;;
14760;SDS011;7472;45.396;5.272;2023-08-20T10:44:58;7.53;;;4.40;;
14760;SDS011;7472;45.396;5.272;2023-08-20T10:47:34;10.60;;;4.45;;
14760;SDS011;7472;45.396;5.272;2023-08-20T10:50:02;11.93;;;4.45;;
14760;SDS011;7472;45.396;5.272;2023-08-20T10:52:30;11.77;;;3.67;;
14760;SDS011;7472;45.396;5.272;2023-08-20T10:54:59;7.43;;;4.40;;
14760;SDS011;7472;45.396;5.272;2023-08-20T10:57:33;8.70;;;4.25;;
14760;SDS011;7472;45.396;5.272;2023-08-20T11:00:01;8.95;;;4.55;;
14760;SDS011;7472;45.396;5.272;2023-08-20T11:02:31;8.00;;;3.90;;
14760;SDS011;7472;45.396;5.272;2023-08-20T11:05:01;12.60;;;4.45;;
14760;SDS011;7472;45.396;5.272;2023-08-20T11:07:28;8.73;;;4.30;;
14760;SDS011;7472;45.396;5.272;2023-08-20T11:09:57;6.15;;;4.13;;
14760;SDS011;7472;45.396;5.272;2023-08-20T11:12:28;6.45;;;3.92;;
14760;SDS011;7472;45.396;5.272;2023-08-20T11:14:59;5.47;;;3.70;;
14760;SDS011;7472;45.396;5.272;2023-08-20T11:17:27;8.35;;;4.03;;
14760;SDS011;7472;45.396;5.272;2023-08-20T11:19:55;6.22;;;3.92;;
14760;SDS011;7472;45.396;5.272;2023-08-20T11:22:22;7.13;;;4.13;;
14760;SDS011;7472;45.396;5.272;2023-08-20T11:24:50;12.77;;;3.90;;
14760;SDS011;7472;45.396;5.272;2023-08-20T11:27:17;5.57;;;3.58;;
14760;SDS011;7472;45.396;5.272;2023-08-20T11:29:46;7.47;;;3.80;;
14760;SDS011;7472;45.396;5.272;2023-08-20T11:32:13;5.55;;;4.00;;
14760;SDS011;7472;45.396;5.272;2023-08-20T11:34:41;8.52;;;4.07;;
14760;SDS011;7472;45.396;5.272;2023-08-20T11:37:08;13.50;;;4.18;;
14760;SDS011;7472;45.396;5.272;2023-08-20T11:39:36;6.10;;;3.75;;
14760;SDS011;7472;45.396;5.272;2023-08-20T11:42:04;4.90;;;3.47;;
14760;SDS011;7472;45.396;5.272;2023-08-20T11:44:41;7.32;;;4.22;;
14760;SDS011;7472;45.396;5.272;2023-08-20T11:47:14;8.40;;;3.97;;
14760;SDS011;7472;45.396;5.272;2023-08-20T11:49:42;5.53;;;3.80;;
14760;SDS011;7472;45.396;5.272;2023-08-20T11:52:09;9.70;;;3.88;;
14760;SDS011;7472;45.396;5.272;2023-08-20T11:54:38;7.60;;;3.33;;
14760;SDS011;7472;45.396;5.272;2023-08-20T11:57:06;6.47;;;3.45;;
14760;SDS011;7472;45.396;5.272;2023-08-20T11:59:33;8.38;;;3.88;;
14760;SDS011;7472;45.396;5.272;2023-08-20T12:02:01;6.05;;;3.47;;
14760;SDS011;7472;45.396;5.272;2023-08-20T12:04:30;7.00;;;3.30;;
14760;SDS011;7472;45.396;5.272;2023-08-20T12:07:01;6.60;;;3.60;;
14760;SDS011;7472;45.396;5.272;2023-08-20T12:09:30;7.18;;;3.38;;
14760;SDS011;7472;45.396;5.272;2023-08-20T12:11:58;11.18;;;3.63;;
14760;SDS011;7472;45.396;5.272;2023-08-20T12:14:25;9.30;;;3.78;;
14760;SDS011;7472;45.396;5.272;2023-08-20T12:16:53;7.63;;;4.18;;
14760;SDS011;7472;45.396;5.272;2023-08-20T12:19:20;7.93;;;3.60;;
14760;SDS011;7472;45.396;5.272;2023-08-20T12:21:49;11.07;;;3.63;;
14760;SDS011;7472;45.396;5.272;2023-08-20T12:24:17;6.75;;;3.55;;
14760;SDS011;7472;45.396;5.272;2023-08-20T12:26:45;10.40;;;4.03;;
14760;SDS011;7472;45.396;5.272;2023-08-20T12:29:13;6.05;;;3.65;;
14760;SDS011;7472;45.396;5.272;2023-08-20T12:31:40;10.05;;;3.78;;
14760;SDS011;7472;45.396;5.272;2023-08-20T12:34:08;10.63;;;4.05;;
14760;SDS011;7472;45.396;5.272;2023-08-20T12:36:35;11.30;;;4.07;;
14760;SDS011;7472;45.396;5.272;2023-08-20T12:39:04;4.65;;;3.30;;
14760;SDS011;7472;45.396;5.272;2023-08-20T12:41:32;7.95;;;3.60;;
14760;SDS011;7472;45.396;5.272;2023-08-20T12:44:01;10.32;;;3.92;;
14760;SDS011;7472;45.396;5.272;2023-08-20T12:46:28;7.20;;;3.85;;
14760;SDS011;7472;45.396;5.272;2023-08-20T12:48:56;11.15;;;3.45;;
14760;SDS011;7472;45.396;5.272;2023-08-20T12:51:23;8.82;;;3.70;;
14760;SDS011;7472;45.396;5.272;2023-08-20T12:53:50;9.15;;;3.65;;
14760;SDS011;7472;45.396;5.272;2023-08-20T12:56:19;6.70;;;4.20;;
14760;SDS011;7472;45.396;5.272;2023-08-20T12:58:46;6.97;;;3.60;;
14760;SDS011;7472;45.396;5.272;2023-08-20T13:01:14;5.80;;;3.35;;
14760;SDS011;7472;45.396;5.272;2023-08-20T13:03:42;9.85;;;3.30;;
14760;SDS011;7472;45.396;5.272;2023-08-20T13:06:10;10.07;;;4.03;;
14760;SDS011;7472;45.396;5.272;2023-08-20T13:08:37;7.38;;;3.75;;
14760;SDS011;7472;45.396;5.272;2023-08-20T13:11:07;8.68;;;3.65;;
14760;SDS011;7472;45.396;5.272;2023-08-20T13:13:36;8.23;;;3.28;;
14760;SDS011;7472;45.396;5.272;2023-08-20T13:16:04;8.35;;;3.67;;
14760;SDS011;7472;45.396;5.272;2023-08-20T13:18:32;6.78;;;3.58;;
14760;SDS011;7472;45.396;5.272;2023-08-20T13:20:59;5.95;;;3.35;;
14760;SDS011;7472;45.396;5.272;2023-08-20T13:23:27;11.57;;;3.58;;
14760;SDS011;7472;45.396;5.272;2023-08-20T13:25:54;7.43;;;3.80;;
14760;SDS011;7472;45.396;5.272;2023-08-20T13:28:21;9.73;;;4.32;;
14760;SDS011;7472;45.396;5.272;2023-08-20T13:30:50;8.73;;;3.58;;
14760;SDS011;7472;45.396;5.272;2023-08-20T13:33:18;8.45;;;3.63;;
14760;SDS011;7472;45.396;5.272;2023-08-20T13:35:45;8.90;;;4.10;;
14760;SDS011;7472;45.396;5.272;2023-08-20T13:38:12;5.93;;;3.55;;
14760;SDS011;7472;45.396;5.272;2023-08-20T13:40:40;9.13;;;3.63;;
14760;SDS011;7472;45.396;5.272;2023-08-20T13:43:07;6.32;;;3.65;;
14760;SDS011;7472;45.396;5.272;2023-08-20T13:45:35;10.20;;;3.90;;
14760;SDS011;7472;45.396;5.272;2023-08-20T13:48:04;6.05;;;3.70;;
14760;SDS011;7472;45.396;5.272;2023-08-20T13:50:32;11.63;;;4.40;;
14760;SDS011;7472;45.396;5.272;2023-08-20T13:53:00;9.23;;;3.47;;
14760;SDS011;7472;45.396;5.272;2023-08-20T13:55:27;11.15;;;3.90;;
14760;SDS011;7472;45.396;5.272;2023-08-20T13:57:56;8.77;;;3.50;;
14760;SDS011;7472;45.396;5.272;2023-08-20T14:00:23;7.28;;;3.67;;
14760;SDS011;7472;45.396;5.272;2023-08-20T14:02:51;5.07;;;3.40;;
14760;SDS011;7472;45.396;5.272;2023-08-20T14:05:20;6.78;;;3.55;;
14760;SDS011;7472;45.396;5.272;2023-08-20T14:07:48;4.70;;;3.67;;
14760;SDS011;7472;45.396;5.272;2023-08-20T14:10:15;7.47;;;3.30;;
14760;SDS011;7472;45.396;5.272;2023-08-20T14:12:42;10.02;;;3.60;;
14760;SDS011;7472;45.396;5.272;2023-08-20T14:15:10;6.07;;;3.88;;
14760;SDS011;7472;45.396;5.272;2023-08-20T14:17:37;3.85;;;3.03;;
14760;SDS011;7472;45.396;5.272;2023-08-20T14:20:05;7.47;;;3.38;;
14760;SDS011;7472;45.396;5.272;2023-08-20T14:22:35;13.98;;;3.83;;
14760;SDS011;7472;45.396;5.272;2023-08-20T14:25:02;7.35;;;3.63;;
14760;SDS011;7472;45.396;5.272;2023-08-20T14:27:30;11.18;;;3.33;;
14760;SDS011;7472;45.396;5.272;2023-08-20T14:29:57;6.13;;;3.30;;
14760;SDS011;7472;45.396;5.272;2023-08-20T14:32:25;8.68;;;3.40;;
14760;SDS011;7472;45.396;5.272;2023-08-20T14:34:52;10.55;;;3.78;;
14760;SDS011;7472;45.396;5.272;2023-08-20T14:37:20;8.05;;;3.78;;
14760;SDS011;7472;45.396;5.272;2023-08-20T14:39:50;8.70;;;3.70;;
14760;SDS011;7472;45.396;5.272;2023-08-20T14:42:17;7.65;;;3.33;;
14760;SDS011;7472;45.396;5.272;2023-08-20T14:44:45;4.95;;;3.10;;
14760;SDS011;7472;45.396;5.272;2023-08-20T14:47:13;7.57;;;3.50;;
14760;SDS011;7472;45.396;5.272;2023-08-20T14:49:40;8.07;;;3.42;;
14760;SDS011;7472;45.396;5.272;2023-08-20T14:52:07;7.90;;;3.33;;
14760;SDS011;7472;45.396;5.272;2023-08-20T14:54:35;6.88;;;3.20;;
14760;SDS011;7472;45.396;5.272;2023-08-20T14:57:04;11.88;;;3.70;;
14760;SDS011;7472;45.396;5.272;2023-08-20T14:59:31;8.20;;;4.05;;
14760;SDS011;7472;45.396;5.272;2023-08-20T15:01:59;8.30;;;3.78;;
14760;SDS011;7472;45.396;5.272;2023-08-20T15:04:26;7.45;;;3.45;;
14760;SDS011;7472;45.396;5.272;2023-08-20T15:06:54;7.40;;;3.83;;
14760;SDS011;7472;45.396;5.272;2023-08-20T15:09:21;7.18;;;3.58;;
14760;SDS011;7472;45.396;5.272;2023-08-20T15:11:49;8.88;;;3.80;;